createdAt,value
2023-04-14T00:01:31.711Z,98836.38
2023-04-14T00:03:04.432Z,98835.44
2023-04-14T00:04:36.960Z,98837.19
2023-04-14T00:06:09.202Z,98837.28
2023-04-14T00:07:41.328Z,98832.19
2023-04-14T00:09:13.468Z,98837.41
2023-04-14T00:10:45.592Z,98839.16
2023-04-14T00:12:17.645Z,98838.38
2023-04-14T00:13:49.808Z,98832.38
2023-04-14T00:15:22.342Z,98835.84
2023-04-14T00:16:54.463Z,98836.69
2023-04-14T00:18:26.728Z,98836.78
2023-04-14T00:19:58.786Z,98828.19
2023-04-14T00:21:32.044Z,98829.09
2023-04-14T00:23:04.131Z,98825.72
2023-04-14T00:24:41.241Z,98823.16
2023-04-14T00:26:13.352Z,98821.50
2023-04-14T00:27:45.466Z,98826.63
2023-04-14T00:29:17.609Z,98824.88
2023-04-14T00:30:49.855Z,98835.91
2023-04-14T00:32:22.009Z,98833.25
2023-04-14T00:33:54.141Z,98830.59
2023-04-14T00:35:26.378Z,98821.97
2023-04-14T00:36:58.522Z,98819.41
2023-04-14T00:38:30.815Z,98821.09
2023-04-14T00:40:03.175Z,98823.56
2023-04-14T00:41:35.796Z,98814.03
2023-04-14T00:43:07.929Z,98828.59
2023-04-14T00:44:40.124Z,98832.00
2023-04-14T00:46:15.121Z,98825.91
2023-04-14T00:47:48.420Z,98824.28
2023-04-14T00:49:20.675Z,98826.13
2023-04-14T00:50:52.904Z,98822.75
2023-04-14T00:52:25.971Z,98817.59
2023-04-14T00:53:58.097Z,98814.13
2023-04-14T00:55:30.867Z,98809.81
2023-04-14T00:57:03.371Z,98811.53
2023-04-14T00:58:35.907Z,98812.38
2023-04-14T01:00:08.651Z,98807.19
2023-04-14T01:01:41.894Z,98804.66
2023-04-14T01:03:14.135Z,98801.28
2023-04-14T01:04:53.765Z,98797.97
2023-04-14T01:06:27.605Z,98803.03
2023-04-14T01:07:59.822Z,98801.16
2023-04-14T01:09:32.398Z,98807.09
2023-04-14T01:11:17.585Z,98803.56
2023-04-14T01:12:55.056Z,98802.03
2023-04-14T01:15:05.868Z,98797.72
2023-04-14T01:16:40.620Z,98803.16
2023-04-14T01:18:27.162Z,98797.28
2023-04-14T01:20:17.399Z,98802.56
2023-04-14T01:21:52.621Z,98799.28
2023-04-14T01:23:27.848Z,98791.56
2023-04-14T01:25:05.511Z,98795.06
2023-04-14T01:26:37.942Z,98795.00
2023-04-14T01:28:39.230Z,98788.81
2023-04-14T01:30:30.260Z,98793.13
2023-04-14T01:32:12.402Z,98792.16
2023-04-14T01:33:50.647Z,98781.81
2023-04-14T01:35:43.066Z,98793.72
2023-04-14T01:37:21.954Z,98786.88
2023-04-14T01:38:55.975Z,98789.47
2023-04-14T01:40:29.021Z,98779.16
2023-04-14T01:42:02.759Z,98789.44
2023-04-14T01:43:38.473Z,98791.16
2023-04-14T01:45:18.896Z,98790.34
2023-04-14T01:46:52.660Z,98794.69
2023-04-14T01:48:26.316Z,98795.41
2023-04-14T01:50:00.054Z,98802.22
2023-04-14T01:51:32.996Z,98792.75
2023-04-14T01:53:07.210Z,98790.94
2023-04-14T01:54:40.540Z,98796.88
2023-04-14T01:56:13.738Z,98796.88
2023-04-14T01:57:50.330Z,98795.25
2023-04-14T01:59:23.679Z,98798.00
2023-04-14T02:00:56.363Z,98789.63
2023-04-14T02:02:28.742Z,98794.84
2023-04-14T02:04:05.492Z,98793.16
2023-04-14T02:05:39.782Z,98791.47
2023-04-14T02:07:13.084Z,98785.53
2023-04-14T02:08:45.237Z,98790.56
2023-04-14T02:10:20.488Z,98789.56
2023-04-14T02:11:53.530Z,98791.22
2023-04-14T02:13:26.225Z,98792.00
2023-04-14T02:15:00.842Z,98788.50
2023-04-14T02:16:34.273Z,98779.13
2023-04-14T02:18:06.422Z,98783.25
2023-04-14T02:19:38.733Z,98786.78
2023-04-14T02:21:11.358Z,98782.44
2023-04-14T02:22:43.796Z,98779.00
2023-04-14T02:24:15.979Z,98773.06
2023-04-14T02:26:19.324Z,98782.41
2023-04-14T02:27:56.969Z,98782.41
2023-04-14T02:29:29.743Z,98785.00
2023-04-14T02:31:06.748Z,98776.47
2023-04-14T02:32:41.206Z,98779.09
2023-04-14T02:34:14.678Z,98777.38
2023-04-14T02:35:56.856Z,98774.81
2023-04-14T02:37:39.900Z,98783.44
2023-04-14T02:39:18.340Z,98791.09
2023-04-14T02:40:50.799Z,98785.97
2023-04-14T02:42:27.551Z,98777.25
2023-04-14T02:44:06.769Z,98776.31
2023-04-14T02:45:41.070Z,98778.00
2023-04-14T02:47:24.831Z,98773.75
2023-04-14T02:48:58.370Z,98776.28
2023-04-14T02:50:31.165Z,98778.78
2023-04-14T02:52:07.583Z,98775.19
2023-04-14T02:53:40.027Z,98775.28
2023-04-14T02:55:12.352Z,98777.00
2023-04-14T02:56:44.597Z,98771.88
2023-04-14T02:58:17.052Z,98769.19
2023-04-14T02:59:49.839Z,98767.41
2023-04-14T03:01:22.146Z,98766.59
2023-04-14T03:02:54.972Z,98764.84
2023-04-14T03:04:27.529Z,98770.88
2023-04-14T03:05:59.968Z,98771.75
2023-04-14T03:07:32.557Z,98761.38
2023-04-14T03:09:05.609Z,98763.00
2023-04-14T03:10:39.011Z,98766.38
2023-04-14T03:12:13.251Z,98756.06
2023-04-14T03:13:46.379Z,98761.38
2023-04-14T03:15:19.360Z,98756.22
2023-04-14T03:16:53.610Z,98757.16
2023-04-14T03:18:27.106Z,98751.97
2023-04-14T03:20:00.550Z,98760.50
2023-04-14T03:21:33.965Z,98755.28
2023-04-14T03:23:06.304Z,98749.28
2023-04-14T03:24:39.580Z,98748.25
2023-04-14T03:26:18.756Z,98750.72
2023-04-14T03:27:51.506Z,98749.81
2023-04-14T03:29:28.273Z,98753.16
2023-04-14T03:31:01.761Z,98749.72
2023-04-14T03:32:37.342Z,98755.78
2023-04-14T03:34:09.656Z,98747.31
2023-04-14T03:35:42.575Z,98750.72
2023-04-14T03:37:18.386Z,98752.44
2023-04-14T03:38:51.524Z,98751.72
2023-04-14T03:40:26.362Z,98751.75
2023-04-14T03:41:59.083Z,98746.69
2023-04-14T03:43:33.744Z,98748.38
2023-04-14T03:45:06.901Z,98744.03
2023-04-14T03:46:39.058Z,98737.09
2023-04-14T03:48:13.827Z,98737.84
2023-04-14T03:49:49.709Z,98742.00
2023-04-14T03:51:23.124Z,98744.50
2023-04-14T03:52:55.571Z,98747.75
2023-04-14T03:54:30.901Z,98741.75
2023-04-14T03:56:03.829Z,98738.19
2023-04-14T03:57:36.969Z,98734.66
2023-04-14T03:59:13.073Z,98732.91
2023-04-14T04:00:45.745Z,98731.13
2023-04-14T04:02:18.639Z,98734.47
2023-04-14T04:03:52.668Z,98736.03
2023-04-14T04:05:25.060Z,98732.50
2023-04-14T04:06:57.490Z,98733.22
2023-04-14T04:08:31.250Z,98734.78
2023-04-14T04:10:06.260Z,98731.13
2023-04-14T04:11:39.392Z,98731.81
2023-04-14T04:13:13.927Z,98723.03
2023-04-14T04:14:46.304Z,98722.06
2023-04-14T04:16:19.946Z,98718.34
2023-04-14T04:17:52.402Z,98722.56
2023-04-14T04:19:24.736Z,98722.34
2023-04-14T04:20:58.358Z,98727.31
2023-04-14T04:22:31.054Z,98726.34
2023-04-14T04:24:05.313Z,98723.63
2023-04-14T04:25:39.088Z,98725.97
2023-04-14T04:27:24.358Z,98728.41
2023-04-14T04:29:01.108Z,98725.63
2023-04-14T04:30:34.699Z,98722.88
2023-04-14T04:32:07.349Z,98721.09
2023-04-14T04:33:39.384Z,98721.81
2023-04-14T04:35:12.298Z,98719.88
2023-04-14T04:36:45.217Z,98723.94
2023-04-14T04:38:17.735Z,98716.09
2023-04-14T04:39:49.973Z,98719.38
2023-04-14T04:41:23.038Z,98714.00
2023-04-14T04:42:55.215Z,98716.47
2023-04-14T04:44:27.480Z,98711.84
2023-04-14T04:45:59.579Z,98698.69
2023-04-14T04:47:31.738Z,98697.50
2023-04-14T04:49:03.849Z,98697.28
2023-04-14T04:50:36.084Z,98694.41
2023-04-14T04:52:08.112Z,98694.88
2023-04-14T04:53:40.284Z,98691.16
2023-04-14T04:55:12.389Z,98699.44
2023-04-14T04:56:44.466Z,98695.75
2023-04-14T04:58:16.605Z,98679.16
2023-04-14T04:59:51.787Z,98684.03
2023-04-14T05:01:23.905Z,98686.41
2023-04-14T05:02:56.887Z,98690.41
2023-04-14T05:04:29.224Z,98679.84
2023-04-14T05:06:01.491Z,98683.97
2023-04-14T05:07:33.769Z,98671.66
2023-04-14T05:09:06.416Z,98669.56
2023-04-14T05:10:38.608Z,98665.06
2023-04-14T05:12:11.157Z,98663.94
2023-04-14T05:13:43.362Z,98655.16
2023-04-14T05:15:16.456Z,98659.31
2023-04-14T05:16:48.779Z,98652.09
2023-04-14T05:18:21.217Z,98647.66
2023-04-14T05:19:53.321Z,98644.81
2023-04-14T05:21:25.542Z,98649.88
2023-04-14T05:22:57.697Z,98642.88
2023-04-14T05:24:29.826Z,98637.81
2023-04-14T05:26:22.317Z,98633.44
2023-04-14T05:27:54.364Z,98638.59
2023-04-14T05:29:26.518Z,98635.06
2023-04-14T05:31:01.186Z,98621.25
2023-04-14T05:32:33.631Z,98627.88
2023-04-14T05:34:08.395Z,98630.16
2023-04-14T05:35:40.882Z,98633.59
2023-04-14T05:37:13.039Z,98634.31
2023-04-14T05:38:45.324Z,98623.03
2023-04-14T05:40:18.453Z,98634.13
2023-04-14T05:41:50.746Z,98639.19
2023-04-14T05:43:22.838Z,98629.59
2023-04-14T05:44:55.023Z,98627.78
2023-04-14T05:46:27.190Z,98638.09
2023-04-14T05:47:59.518Z,98638.16
2023-04-14T05:49:31.876Z,98645.94
2023-04-14T05:51:04.159Z,98637.25
2023-04-14T05:52:36.417Z,98641.53
2023-04-14T05:54:08.497Z,98639.72
2023-04-14T05:55:41.949Z,98644.13
2023-04-14T05:57:14.210Z,98641.63
2023-04-14T05:58:46.412Z,98631.16
2023-04-14T06:00:18.805Z,98636.25
2023-04-14T06:01:53.705Z,98638.78
2023-04-14T06:03:26.301Z,98635.16
2023-04-14T06:05:00.214Z,98636.72
2023-04-14T06:08:04.383Z,98622.88
2023-04-14T06:09:36.616Z,98638.00
2023-04-14T06:11:08.835Z,98624.16
2023-04-14T06:12:40.931Z,98624.00
2023-04-14T06:14:13.035Z,98630.88
2023-04-14T06:15:45.139Z,98627.31
2023-04-14T06:17:17.781Z,98622.13
2023-04-14T06:18:49.982Z,98612.75
2023-04-14T06:20:22.403Z,98613.47
2023-04-14T06:21:54.643Z,98620.25
2023-04-14T06:23:27.231Z,98622.84
2023-04-14T06:24:59.356Z,98615.03
2023-04-14T06:26:32.828Z,98606.19
2023-04-14T06:28:04.762Z,98617.94
2023-04-14T06:29:37.091Z,98607.75
2023-04-14T06:31:09.375Z,98599.06
2023-04-14T06:32:41.810Z,98605.94
2023-04-14T06:34:13.968Z,98597.25
2023-04-14T06:37:29.474Z,98579.50
2023-04-14T06:39:01.827Z,98583.38
2023-04-14T06:40:34.110Z,98589.31
2023-04-14T06:42:06.415Z,98582.47
2023-04-14T06:43:38.556Z,98578.09
2023-04-14T06:45:11.167Z,98586.59
2023-04-14T06:46:43.326Z,98589.06
2023-04-14T06:48:16.102Z,98591.53
2023-04-14T06:49:51.228Z,98574.91
2023-04-14T06:51:23.351Z,98566.22
2023-04-14T06:52:55.887Z,98572.94
2023-04-14T06:54:28.499Z,98562.56
2023-04-14T06:56:01.056Z,98574.66
2023-04-14T06:57:33.291Z,98578.03
2023-04-14T06:59:05.464Z,98572.69
2023-04-14T07:00:37.785Z,98575.09
2023-04-14T07:02:10.012Z,98573.13
2023-04-14T07:03:42.185Z,98568.72
2023-04-14T07:05:14.883Z,98565.13
2023-04-14T07:06:47.133Z,98565.78
2023-04-14T07:08:20.448Z,98569.91
2023-04-14T07:09:52.739Z,98570.81
2023-04-14T07:11:25.259Z,98568.09
2023-04-14T07:12:57.419Z,98569.69
2023-04-14T07:14:31.854Z,98560.81
2023-04-14T07:16:04.805Z,98562.41
2023-04-14T07:17:37.273Z,98561.47
2023-04-14T07:19:09.656Z,98562.25
2023-04-14T07:20:42.356Z,98558.59
2023-04-14T07:22:14.577Z,98546.44
2023-04-14T07:23:46.665Z,98550.81
2023-04-14T07:25:19.796Z,98546.28
2023-04-14T07:26:52.319Z,98547.22
2023-04-14T07:28:25.335Z,98546.97
2023-04-14T07:29:57.560Z,98546.91
2023-04-14T07:31:31.784Z,98542.41
2023-04-14T07:33:04.151Z,98547.53
2023-04-14T07:34:36.356Z,98542.25
2023-04-14T07:36:09.919Z,98538.53
2023-04-14T07:37:42.090Z,98533.97
2023-04-14T07:39:14.287Z,98531.94
2023-04-14T07:40:46.937Z,98540.47
2023-04-14T07:42:19.215Z,98537.72
2023-04-14T07:43:51.374Z,98531.41
2023-04-14T07:45:23.960Z,98524.13
2023-04-14T07:46:56.159Z,98524.84
2023-04-14T07:48:28.687Z,98536.53
2023-04-14T07:50:00.809Z,98531.16
2023-04-14T07:51:33.544Z,98530.88
2023-04-14T07:53:05.812Z,98531.50
2023-04-14T07:54:38.020Z,98518.31
2023-04-14T07:56:10.353Z,98511.91
2023-04-14T07:57:42.634Z,98523.06
2023-04-14T07:59:15.120Z,98523.59
2023-04-14T08:00:47.397Z,98526.97
2023-04-14T08:02:19.908Z,98518.16
2023-04-14T08:03:52.506Z,98513.56
2023-04-14T08:05:24.946Z,98511.75
2023-04-14T08:06:58.288Z,98514.09
2023-04-14T08:08:30.706Z,98506.03
2023-04-14T08:10:03.805Z,98503.38
2023-04-14T08:11:36.122Z,98499.75
2023-04-14T08:13:08.340Z,98501.47
2023-04-14T08:14:40.670Z,98497.09
2023-04-14T08:16:13.330Z,98499.69
2023-04-14T08:17:45.581Z,98493.72
2023-04-14T08:19:17.751Z,98492.66
2023-04-14T08:20:50.151Z,98484.78
2023-04-14T08:22:22.326Z,98491.63
2023-04-14T08:23:54.512Z,98498.38
2023-04-14T08:26:59.950Z,98507.38
2023-04-14T08:28:32.321Z,98509.06
2023-04-14T08:30:05.693Z,98503.53
2023-04-14T08:31:37.806Z,98504.81
2023-04-14T08:33:10.147Z,98515.25
2023-04-14T08:35:37.018Z,98515.81
2023-04-14T08:36:34.857Z,98512.13
2023-04-14T08:38:07.275Z,98514.72
2023-04-14T08:39:39.447Z,98509.94
2023-04-14T08:41:13.563Z,98511.06
2023-04-14T08:42:48.793Z,98504.56
2023-04-14T08:44:22.367Z,98506.50
2023-04-14T08:45:55.381Z,98505.97
2023-04-14T08:47:32.390Z,98512.25
2023-04-14T08:49:08.928Z,98513.50
2023-04-14T08:51:08.336Z,98518.78
2023-04-14T08:52:41.310Z,98527.56
2023-04-14T08:54:13.699Z,98528.16
2023-04-14T08:55:45.972Z,98533.59
2023-04-14T08:57:23.207Z,98527.75
2023-04-14T08:58:55.813Z,98517.91
2023-04-14T09:00:28.148Z,98514.63
2023-04-14T09:02:00.929Z,98519.97
2023-04-14T09:03:33.723Z,98509.72
2023-04-14T09:05:07.361Z,98511.47
2023-04-14T09:06:40.667Z,98517.53
2023-04-14T09:08:13.198Z,98513.53
2023-04-14T09:09:46.004Z,98515.16
2023-04-14T09:11:20.685Z,98504.72
2023-04-14T09:12:53.080Z,98498.34
2023-04-14T09:14:25.434Z,98502.25
2023-04-14T09:15:58.113Z,98494.44
2023-04-14T09:17:32.002Z,98490.94
2023-04-14T09:19:06.855Z,98494.22
2023-04-14T09:20:41.313Z,98482.53
2023-04-14T09:22:14.151Z,98485.69
2023-04-14T09:23:47.169Z,98485.44
2023-04-14T09:25:20.275Z,98491.72
2023-04-14T09:26:53.386Z,98467.91
2023-04-14T09:28:25.810Z,98451.59
2023-04-14T09:29:59.115Z,98437.00
2023-04-14T09:31:31.225Z,98457.47
2023-04-14T09:33:07.700Z,98467.00
2023-04-14T09:34:54.683Z,98464.69
2023-04-14T09:36:29.564Z,98460.06
2023-04-14T09:38:02.220Z,98461.81
2023-04-14T09:39:35.753Z,98461.84
2023-04-14T09:41:08.641Z,98448.28
2023-04-14T09:42:43.210Z,98447.63
2023-04-14T09:44:15.374Z,98448.34
2023-04-14T09:45:47.715Z,98452.66
2023-04-14T09:47:21.344Z,98452.59
2023-04-14T09:48:55.882Z,98455.59
2023-04-14T09:50:28.486Z,98454.78
2023-04-14T09:52:08.115Z,98448.09
2023-04-14T09:53:41.576Z,98447.72
2023-04-14T09:55:15.903Z,98471.59
2023-04-14T09:56:48.202Z,98471.34
2023-04-14T09:58:25.571Z,98468.72
2023-04-14T09:59:59.067Z,98461.31
2023-04-14T10:01:34.592Z,98450.69
2023-04-14T10:03:07.313Z,98457.41
2023-04-14T10:04:39.660Z,98458.59
2023-04-14T10:06:24.224Z,98467.41
2023-04-14T10:07:56.753Z,98468.84
2023-04-14T10:09:30.104Z,98472.44
2023-04-14T10:11:14.191Z,98465.16
2023-04-14T10:12:46.986Z,98477.78
2023-04-14T10:14:19.273Z,98482.22
2023-04-14T10:15:51.542Z,98484.13
2023-04-14T10:17:23.882Z,98486.75
2023-04-14T10:18:58.065Z,98488.44
2023-04-14T10:20:30.594Z,98494.63
2023-04-14T10:22:03.249Z,98498.78
2023-04-14T10:23:40.203Z,98496.06
2023-04-14T10:25:13.701Z,98485.91
2023-04-14T10:26:47.699Z,98490.44
2023-04-14T10:28:19.987Z,98494.50
2023-04-14T10:29:52.166Z,98500.47
2023-04-14T10:31:26.152Z,98504.03
2023-04-14T10:32:58.543Z,98520.53
2023-04-14T10:34:35.474Z,98528.78
2023-04-14T10:36:07.722Z,98536.53
2023-04-14T10:37:40.088Z,98532.47
2023-04-14T10:39:12.946Z,98545.59
2023-04-14T10:41:05.911Z,98548.72
2023-04-14T10:43:12.421Z,98549.31
2023-04-14T10:44:44.807Z,98537.09
2023-04-14T10:46:18.625Z,98542.81
2023-04-14T10:47:51.447Z,98551.72
2023-04-14T10:49:31.651Z,98557.91
2023-04-14T10:51:06.292Z,98553.34
2023-04-14T10:52:39.667Z,98556.66
2023-04-14T10:54:20.908Z,98552.25
2023-04-14T10:56:01.143Z,98552.59
2023-04-14T10:57:43.809Z,98552.81
2023-04-14T10:59:17.980Z,98554.09
2023-04-14T11:00:50.144Z,98560.31
2023-04-14T11:02:30.870Z,98554.94
2023-04-14T11:04:20.435Z,98554.94
2023-04-14T11:05:52.794Z,98562.06
2023-04-14T11:07:25.026Z,98559.94
2023-04-14T11:08:57.902Z,98574.72
2023-04-14T11:10:32.835Z,98580.91
2023-04-14T11:12:07.214Z,98597.81
2023-04-14T11:13:42.818Z,98607.81
2023-04-14T11:15:18.131Z,98621.25
2023-04-14T11:17:02.898Z,98654.31
2023-04-14T11:18:45.646Z,98653.78
2023-04-14T11:20:24.567Z,98647.66
2023-04-14T11:21:57.649Z,98649.75
2023-04-14T11:23:29.962Z,98665.97
2023-04-14T11:25:02.890Z,98688.22
2023-04-14T11:26:35.364Z,98700.66
2023-04-14T11:28:08.363Z,98708.50
2023-04-14T11:29:40.504Z,98712.41
2023-04-14T11:31:14.986Z,98758.47
2023-04-14T11:32:53.011Z,98748.44
2023-04-14T11:34:28.767Z,98729.38
2023-04-14T11:36:02.879Z,98759.97
2023-04-14T11:37:36.693Z,98768.06
2023-04-14T11:39:08.955Z,98781.78
2023-04-14T11:40:41.558Z,98791.53
2023-04-14T11:42:13.868Z,98794.06
2023-04-14T11:43:47.352Z,98802.78
2023-04-14T11:45:19.845Z,98803.09
2023-04-14T11:46:52.026Z,98809.06
2023-04-14T11:48:24.233Z,98792.69
2023-04-14T11:49:56.419Z,98801.53
2023-04-14T11:51:30.996Z,98804.06
2023-04-14T11:53:08.830Z,98819.22
2023-04-14T11:54:41.172Z,98837.47
2023-04-14T11:56:13.517Z,98835.50
2023-04-14T11:57:47.589Z,98828.53
2023-04-14T11:59:19.817Z,98845.97
2023-04-14T12:00:55.487Z,98863.97
2023-04-14T12:02:28.386Z,98881.91
2023-04-14T12:04:00.883Z,98872.31
2023-04-14T12:05:34.385Z,98872.09
2023-04-14T12:07:10.496Z,98889.88
2023-04-14T12:08:44.339Z,98890.97
2023-04-14T12:10:16.697Z,98883.84
2023-04-14T13:02:49.970Z,98827.88
2023-04-14T13:04:22.361Z,98834.63
2023-04-14T13:05:58.487Z,98834.28
2023-04-14T13:07:31.317Z,98825.53
2023-04-14T13:09:04.249Z,98827.53
2023-04-14T13:10:36.753Z,98821.03
2023-04-14T13:12:08.994Z,98815.47
2023-04-14T13:13:41.460Z,98799.28
2023-04-14T13:15:27.848Z,98795.69
2023-04-14T13:17:06.638Z,98797.06
2023-04-14T13:18:39.163Z,98798.94
2023-04-14T13:20:11.855Z,98799.16
2023-04-14T13:21:44.102Z,98797.91
2023-04-14T13:23:16.380Z,98803.75
2023-04-14T13:24:50.507Z,98822.25
2023-04-14T13:26:23.027Z,98832.75
2023-04-14T13:27:55.354Z,98846.06
2023-04-14T13:29:27.533Z,98849.34
2023-04-14T13:30:59.773Z,98853.72
2023-04-14T13:32:34.285Z,98834.84
2023-04-14T13:34:06.560Z,98838.72
2023-04-14T13:35:39.089Z,98846.81
2023-04-14T13:37:11.268Z,98843.44
2023-04-14T13:38:43.490Z,98852.56
2023-04-14T13:40:16.016Z,98854.66
2023-04-14T13:41:48.214Z,98870.50
2023-04-14T13:43:20.357Z,98881.00
2023-04-14T13:44:53.013Z,98885.50
2023-04-14T13:46:26.417Z,98880.66
2023-04-14T13:47:58.561Z,98877.22
2023-04-14T13:49:31.898Z,98880.81
2023-04-14T13:51:04.404Z,98882.63
2023-04-14T13:52:36.638Z,98877.53
2023-04-14T13:54:11.797Z,98891.13
2023-04-14T13:55:46.902Z,98881.34
2023-04-14T13:57:19.291Z,98880.06
2023-04-14T13:58:54.930Z,98875.78
2023-04-14T14:00:27.693Z,98875.63
2023-04-14T14:02:00.012Z,98876.56
2023-04-14T14:03:32.570Z,98882.50
2023-04-14T14:05:05.372Z,98887.44
2023-04-14T14:06:37.854Z,98887.16
2023-04-14T14:08:10.045Z,98887.06
2023-04-14T14:09:42.414Z,98899.88
2023-04-14T14:11:17.149Z,98911.91
2023-04-14T14:12:49.396Z,98911.63
2023-04-14T14:14:21.661Z,98914.44
2023-04-14T14:15:54.510Z,98897.13
2023-04-14T14:17:27.928Z,98898.44
2023-04-14T14:19:00.322Z,98897.78
2023-04-14T14:20:32.700Z,98895.75
2023-04-14T14:22:04.826Z,98885.56
2023-04-14T14:23:36.983Z,98888.63
2023-04-14T14:25:19.578Z,98897.50
2023-04-14T14:26:52.819Z,98881.31
2023-04-14T14:28:25.141Z,98874.81
2023-04-14T14:29:57.371Z,98886.28
2023-04-14T14:31:29.650Z,98902.97
2023-04-14T14:33:01.819Z,98901.41
2023-04-14T14:34:34.060Z,98895.06
2023-04-14T14:36:07.245Z,98895.72
2023-04-14T14:37:41.253Z,98912.69
2023-04-14T14:39:13.915Z,98918.03
2023-04-14T14:40:46.133Z,98915.66
2023-04-14T14:42:18.393Z,98942.84
2023-04-14T14:43:51.693Z,98941.16
2023-04-14T14:45:30.391Z,98961.59
2023-04-14T14:47:03.580Z,98942.72
2023-04-14T14:48:36.662Z,98959.56
2023-04-14T14:50:09.089Z,98943.59
2023-04-14T14:51:41.302Z,98946.03
2023-04-14T14:53:13.457Z,98930.13
2023-04-14T14:54:45.639Z,98928.59
2023-04-14T14:56:18.809Z,98934.97
2023-04-14T14:57:51.747Z,98928.72
2023-04-14T14:59:24.283Z,98930.59
2023-04-14T15:00:56.388Z,98933.13
2023-04-14T15:02:29.019Z,98931.63
2023-04-14T15:04:01.763Z,98920.59
2023-04-14T15:05:34.581Z,98924.88
2023-04-14T15:07:08.034Z,98929.19
2023-04-14T15:08:39.983Z,98922.75
2023-04-14T15:10:12.252Z,98930.84
2023-04-14T15:11:44.440Z,98930.09
2023-04-14T15:13:16.638Z,98933.81
2023-04-14T15:14:49.060Z,98936.41
2023-04-14T15:16:21.501Z,98947.81
2023-04-14T15:17:53.740Z,98950.66
2023-04-14T15:19:25.948Z,98955.97
2023-04-14T15:20:58.058Z,98957.72
2023-04-14T15:22:30.442Z,98956.91
2023-04-14T15:24:02.683Z,98955.44
2023-04-14T15:25:34.978Z,98947.03
2023-04-14T15:27:07.160Z,98956.91
2023-04-14T15:28:39.921Z,98956.22
2023-04-14T15:30:12.556Z,98961.84
2023-04-14T15:31:47.117Z,98962.94
2023-04-14T15:33:19.332Z,98961.59
2023-04-14T15:34:55.480Z,98946.94
2023-04-14T15:36:27.916Z,98943.03
2023-04-14T15:38:00.204Z,98934.63
2023-04-14T15:39:32.780Z,98931.25
2023-04-14T15:41:05.985Z,98923.88
2023-04-14T15:42:38.485Z,98918.72
2023-04-14T15:44:10.921Z,98908.03
2023-04-14T15:45:43.206Z,98909.69
2023-04-14T15:47:15.540Z,98893.63
2023-04-14T15:48:47.669Z,98892.91
2023-04-14T15:50:20.177Z,98899.66
2023-04-14T15:51:53.201Z,98900.88
2023-04-14T15:53:26.069Z,98894.91
2023-04-14T15:54:58.167Z,98890.84
2023-04-14T15:56:30.608Z,98911.66
2023-04-14T15:58:02.986Z,98902.44
2023-04-14T15:59:35.152Z,98886.66
2023-04-14T16:01:08.277Z,98876.22
2023-04-14T16:02:42.419Z,98870.72
2023-04-14T16:04:14.806Z,98866.06
2023-04-14T16:05:46.973Z,98834.94
2023-04-14T16:07:19.057Z,98829.66
2023-04-14T16:08:51.351Z,98831.50
2023-04-14T16:10:23.792Z,98804.63
2023-04-14T16:11:56.937Z,98801.94
2023-04-14T16:13:29.198Z,98797.66
2023-04-14T16:15:01.533Z,98802.09
2023-04-14T16:16:34.174Z,98799.47
2023-04-14T16:18:06.344Z,98787.47
2023-04-14T16:19:38.637Z,98770.91
2023-04-14T16:21:11.005Z,98773.31
2023-04-14T16:22:43.234Z,98785.47
2023-04-14T16:24:16.045Z,98798.34
2023-04-14T16:25:51.517Z,98798.34
2023-04-14T16:27:23.683Z,98840.59
2023-04-14T16:28:55.919Z,98836.22
2023-04-14T16:30:28.055Z,98829.06
2023-04-14T16:32:02.124Z,98830.41
2023-04-14T16:33:34.292Z,98823.47
2023-04-14T16:35:07.098Z,98828.44
2023-04-14T16:36:45.350Z,98828.88
2023-04-14T16:38:17.586Z,98838.47
2023-04-14T16:39:56.588Z,98842.50
2023-04-14T16:41:29.302Z,98841.75
2023-04-14T16:43:02.021Z,98852.09
2023-04-14T16:44:37.389Z,98870.09
2023-04-14T16:46:09.582Z,98884.19
2023-04-14T16:47:42.063Z,98892.19
2023-04-14T16:49:15.136Z,98885.13
2023-04-14T16:50:49.976Z,98863.34
2023-04-14T16:52:22.416Z,98859.00
2023-04-14T16:53:54.699Z,98858.91
2023-04-14T16:55:26.963Z,98851.84
2023-04-14T16:56:59.022Z,98866.28
2023-04-14T16:58:31.206Z,98860.06
2023-04-14T17:00:04.941Z,98872.91
2023-04-14T17:01:37.420Z,98874.63
2023-04-14T17:03:09.769Z,98872.84
2023-04-14T17:04:42.220Z,98869.47
2023-04-14T17:06:14.482Z,98865.97
2023-04-14T17:07:47.275Z,98860.75
2023-04-14T17:09:19.515Z,98861.59
2023-04-14T17:10:52.090Z,98865.97
2023-04-14T17:12:24.353Z,98870.31
2023-04-14T17:13:56.574Z,98864.25
2023-04-14T17:15:28.972Z,98858.28
2023-04-14T17:17:01.203Z,98860.97
2023-04-14T17:18:34.033Z,98870.53
2023-04-14T17:20:07.162Z,98861.97
2023-04-14T17:21:39.442Z,98869.19
2023-04-14T17:23:11.790Z,98863.34
2023-04-14T17:24:44.824Z,98865.19
2023-04-14T17:26:17.419Z,98878.38
2023-04-14T17:27:49.660Z,98883.06
2023-04-14T17:29:21.784Z,98883.44
2023-04-14T17:30:53.923Z,98893.22
2023-04-14T17:32:26.823Z,98894.22
2023-04-14T17:33:59.321Z,98902.28
2023-04-14T17:35:32.465Z,98903.28
2023-04-14T17:38:52.037Z,98909.00
2023-04-14T17:40:24.307Z,98911.13
2023-04-14T17:41:58.368Z,98916.34
2023-04-14T17:43:30.571Z,98912.25
2023-04-14T17:45:02.992Z,98912.50
2023-04-14T17:46:35.227Z,98909.19
2023-04-14T17:48:08.658Z,98920.44
2023-04-14T17:49:41.139Z,98922.13
2023-04-14T17:51:13.243Z,98923.81
2023-04-14T17:52:46.160Z,98921.19
2023-04-14T17:54:18.329Z,98925.63
2023-04-14T17:55:51.863Z,98925.72
2023-04-14T17:57:24.979Z,98934.09
2023-04-14T17:58:57.956Z,98933.94
2023-04-14T18:00:30.124Z,98930.34
2023-04-14T18:02:02.308Z,98939.72
2023-04-14T18:03:34.830Z,98936.09
2023-04-14T18:05:07.553Z,98936.94
2023-04-14T18:06:39.697Z,98941.72
2023-04-14T18:08:11.946Z,98946.41
2023-04-14T18:09:44.268Z,98953.41
2023-04-14T18:11:16.447Z,98949.25
2023-04-14T18:12:49.680Z,98953.56
2023-04-14T18:14:22.057Z,98951.13
2023-04-14T18:15:54.226Z,98948.88
2023-04-14T18:17:26.630Z,98955.97
2023-04-14T18:18:59.317Z,98966.63
2023-04-14T18:20:31.650Z,98961.75
2023-04-14T18:22:03.861Z,98962.03
2023-04-14T18:23:36.738Z,98965.88
2023-04-14T18:25:10.048Z,98965.34
2023-04-14T18:26:42.291Z,98967.19
2023-04-14T18:28:14.679Z,98969.16
2023-04-14T18:29:47.033Z,98976.97
2023-04-14T18:31:19.435Z,98976.88
2023-04-14T18:32:52.743Z,98967.34
2023-04-14T18:34:24.838Z,98970.94
2023-04-14T18:36:00.960Z,98970.81
2023-04-14T18:37:33.277Z,98967.88
2023-04-14T18:39:05.470Z,98976.25
2023-04-14T18:40:38.642Z,98972.16
2023-04-14T18:42:11.075Z,98970.75
2023-04-14T18:43:43.253Z,98970.81
2023-04-14T18:45:15.521Z,98977.13
2023-04-14T18:46:47.879Z,98973.03
2023-04-14T18:48:20.528Z,98970.75
2023-04-14T18:49:52.711Z,98979.59
2023-04-14T18:51:24.926Z,98975.59
2023-04-14T18:52:57.542Z,98995.38
2023-04-14T18:54:30.013Z,98997.22
2023-04-14T18:56:05.072Z,98989.97
2023-04-14T18:57:37.749Z,98997.31
2023-04-14T18:59:09.844Z,98996.69
2023-04-14T19:00:45.457Z,99001.88
2023-04-14T19:02:17.679Z,99001.44
2023-04-14T19:03:52.014Z,98994.63
2023-04-14T19:05:27.959Z,98988.84
2023-04-14T19:07:00.044Z,99007.53
2023-04-14T19:08:32.202Z,98999.69
2023-04-14T19:10:05.267Z,98998.75
2023-04-14T19:11:37.464Z,99004.94
2023-04-14T19:13:11.648Z,99002.63
2023-04-14T19:14:44.548Z,99000.19
2023-04-14T19:16:16.986Z,98989.81
2023-04-14T19:17:49.170Z,98999.22
2023-04-14T19:19:21.353Z,99000.06